Time;durP1;ratioP1;P1;durP2;ratioP2;P2;SDS_P1;SDS_P2;PMS_P1;PMS_P2;Temp;Humidity;BMP_temperature;BMP_pressure;BME280_temperature;BME280_humidity;BME280_pressure;Samples;Min_cycle;Max_cycle;Signal;HPM_P1;HPM_P2
2021/10/08 00:01:08;;;;;;;;;;;21.70;56.20;;;;;;5105150;28;19924;-59
2021/10/08 00:03:35;;;;;;;;;;;21.70;56.20;;;;;;5073972;28;20408;-58
2021/10/08 00:06:02;;;;;;;;;;;21.70;56.20;;;;;;5065967;28;19933;-59
2021/10/08 00:08:29;;;;;;;;;;;21.70;56.20;;;;;;5105170;28;19931;-59
2021/10/08 00:10:56;;;;;;;;;;;21.70;56.20;;;;;;5105861;28;20284;-60
2021/10/08 00:13:23;;;;;;;;;;;21.70;56.20;;;;;;5072243;28;19972;-59
2021/10/08 00:15:50;;;;;;;;;;;21.70;56.20;;;;;;5057196;28;20024;-59
2021/10/08 00:18:17;;;;;;;;;;;21.70;56.20;;;;;;5072349;28;19924;-59
2021/10/08 00:20:44;;;;;;;;;;;21.70;56.20;;;;;;5072440;28;19932;-59
2021/10/08 00:23:11;;;;;;;;;;;21.70;56.20;;;;;;5072464;28;19924;-58
2021/10/08 00:25:39;;;;;;;;;;;21.70;56.10;;;;;;5065199;28;20000;-59
2021/10/08 00:28:06;;;;;;;;;;;21.70;56.20;;;;;;5070377;28;19924;-58
2021/10/08 00:30:34;;;;;;;;;;;21.70;56.20;;;;;;5078204;28;19924;-59
2021/10/08 00:33:01;;;;;;;;;;;21.70;56.10;;;;;;5058871;28;19925;-58
2021/10/08 00:35:28;;;;;;;;;;;21.70;56.20;;;;;;5073636;28;19924;-58
2021/10/08 00:37:55;;;;;;;;;;;21.70;56.20;;;;;;5071937;28;20019;-58
2021/10/08 00:40:22;;;;;;;;;;;21.70;56.20;;;;;;5072665;28;19924;-59
2021/10/08 00:42:49;;;;;;;;;;;21.70;56.20;;;;;;5071568;28;19970;-58
2021/10/08 00:45:17;;;;;;;;;;;21.70;56.10;;;;;;5070890;28;19924;-58
2021/10/08 00:47:54;;;;;;;;;;;21.70;56.20;;;;;;5072628;28;20007;-58
2021/10/08 00:50:21;;;;;;;;;;;21.70;56.20;;;;;;5061320;28;19978;-58
2021/10/08 00:52:48;;;;;;;;;;;21.70;56.10;;;;;;5067304;28;19999;-59
2021/10/08 00:55:15;;;;;;;;;;;21.70;56.20;;;;;;5071996;28;19940;-59
2021/10/08 00:57:44;;;;;;;;;;;21.70;56.80;;;;;;5070721;28;19959;-59
2021/10/08 01:00:15;;;;;;;;;;;21.70;56.20;;;;;;5077407;28;19928;-59
2021/10/08 01:02:43;;;;;;;;;;;21.70;56.20;;;;;;5085902;28;19932;-60
2021/10/08 01:05:10;;;;;;;;;;;21.70;56.20;;;;;;5072472;28;20380;-59
2021/10/08 01:07:37;;;;;;;;;;;21.70;56.20;;;;;;5072393;28;19924;-60
2021/10/08 01:10:07;;;;;;;;;;;21.70;56.20;;;;;;5071734;28;19978;-59
2021/10/08 01:12:34;;;;;;;;;;;21.70;56.20;;;;;;5088952;28;19974;-58
2021/10/08 01:15:03;;;;;;;;;;;21.70;56.10;;;;;;5071291;28;20335;-59
2021/10/08 01:17:34;;;;;;;;;;;21.70;56.20;;;;;;5058043;28;20010;-59
2021/10/08 01:20:11;;;;;;;;;;;21.70;56.20;;;;;;5069888;28;19998;-59
2021/10/08 01:22:38;;;;;;;;;;;21.70;56.20;;;;;;5060898;28;19968;-59
2021/10/08 01:25:06;;;;;;;;;;;21.70;56.20;;;;;;5065504;28;19989;-59
2021/10/08 01:27:32;;;;;;;;;;;21.70;56.20;;;;;;5071488;28;19925;-58
2021/10/08 01:30:02;;;;;;;;;;;21.70;56.20;;;;;;5071257;28;19925;-59
2021/10/08 01:32:30;;;;;;;;;;;21.70;56.20;;;;;;5071738;28;19956;-59
2021/10/08 01:34:57;;;;;;;;;;;21.70;56.20;;;;;;5072923;28;19979;-57
2021/10/08 01:37:24;;;;;;;;;;;21.70;56.20;;;;;;5073224;28;19947;-60
2021/10/08 01:39:50;;;;;;;;;;;21.70;56.20;;;;;;5055816;28;20008;-59
2021/10/08 01:42:17;;;;;;;;;;;21.70;56.80;;;;;;5072013;28;19928;-58
2021/10/08 01:44:45;;;;;;;;;;;21.70;56.20;;;;;;5085877;28;19974;-59
2021/10/08 01:47:12;;;;;;;;;;;21.70;56.20;;;;;;5072981;28;20411;-59
2021/10/08 01:49:39;;;;;;;;;;;21.70;56.20;;;;;;5069170;28;20400;-59
2021/10/08 01:52:06;;;;;;;;;;;21.70;56.20;;;;;;5062040;28;19929;-59
2021/10/08 01:54:33;;;;;;;;;;;21.70;56.20;;;;;;5057466;28;20436;-60
2021/10/08 01:57:00;;;;;;;;;;;21.70;56.80;;;;;;5057465;28;20024;-59
2021/10/08 01:59:27;;;;;;;;;;;21.70;56.10;;;;;;5072665;28;19932;-58
2021/10/08 02:01:54;;;;;;;;;;;21.70;56.20;;;;;;5072254;28;19985;-58
2021/10/08 02:04:21;;;;;;;;;;;21.70;56.20;;;;;;5072481;28;19986;-59
2021/10/08 02:06:47;;;;;;;;;;;21.70;56.20;;;;;;5054295;28;20048;-60
2021/10/08 02:09:14;;;;;;;;;;;21.70;56.20;;;;;;5071778;28;20012;-59
2021/10/08 02:11:41;;;;;;;;;;;21.70;56.20;;;;;;5065179;28;19924;-58
2021/10/08 02:14:08;;;;;;;;;;;21.70;56.10;;;;;;5072605;28;19925;-60
2021/10/08 02:16:35;;;;;;;;;;;21.70;56.20;;;;;;5076470;28;19932;-59
2021/10/08 02:19:03;;;;;;;;;;;21.70;56.20;;;;;;5069382;28;19928;-60
2021/10/08 02:21:31;;;;;;;;;;;21.70;56.20;;;;;;5074351;28;19963;-59
2021/10/08 02:23:58;;;;;;;;;;;21.70;56.20;;;;;;5074416;28;19974;-58
2021/10/08 02:26:25;;;;;;;;;;;21.70;56.20;;;;;;5076017;28;19955;-59
2021/10/08 02:28:52;;;;;;;;;;;21.70;56.20;;;;;;5075833;28;19933;-58
2021/10/08 02:31:19;;;;;;;;;;;21.70;56.10;;;;;;5076548;28;20023;-59
2021/10/08 02:33:46;;;;;;;;;;;21.70;56.20;;;;;;5057517;28;19968;-59
2021/10/08 02:36:13;;;;;;;;;;;21.70;56.20;;;;;;5072088;28;20011;-59
2021/10/08 02:38:41;;;;;;;;;;;21.70;56.20;;;;;;5077015;28;20015;-59
2021/10/08 02:41:08;;;;;;;;;;;21.70;56.20;;;;;;5074340;28;19924;-59
2021/10/08 02:43:35;;;;;;;;;;;21.70;56.20;;;;;;5074652;28;19978;-59
2021/10/08 02:46:02;;;;;;;;;;;21.70;56.20;;;;;;5070858;28;19974;-59
2021/10/08 02:48:29;;;;;;;;;;;21.70;56.20;;;;;;5065985;28;19967;-59
2021/10/08 02:50:56;;;;;;;;;;;21.70;56.20;;;;;;5070908;28;19964;-59
2021/10/08 02:53:23;;;;;;;;;;;21.70;56.20;;;;;;5060275;28;20011;-59
2021/10/08 02:55:50;;;;;;;;;;;21.70;56.20;;;;;;5058994;28;19970;-60
2021/10/08 02:58:17;;;;;;;;;;;21.70;56.20;;;;;;5075532;28;20418;-59
2021/10/08 03:00:44;;;;;;;;;;;21.70;56.20;;;;;;5074441;28;19994;-59
2021/10/08 03:03:11;;;;;;;;;;;21.70;56.20;;;;;;5091439;28;19924;-58
2021/10/08 03:05:38;;;;;;;;;;;21.70;56.20;;;;;;5060421;28;19931;-60
2021/10/08 03:08:05;;;;;;;;;;;21.70;56.20;;;;;;5072485;28;20296;-59
2021/10/08 03:10:32;;;;;;;;;;;21.70;56.20;;;;;;5086171;28;20291;-60
2021/10/08 03:12:59;;;;;;;;;;;21.70;56.20;;;;;;5081447;28;19996;-59
2021/10/08 03:15:26;;;;;;;;;;;21.70;56.20;;;;;;5067690;28;20012;-59
2021/10/08 03:17:53;;;;;;;;;;;21.70;56.20;;;;;;5058273;28;19964;-59
2021/10/08 03:20:20;;;;;;;;;;;21.70;56.20;;;;;;5060766;28;20016;-59
2021/10/08 03:22:47;;;;;;;;;;;21.70;56.80;;;;;;5073639;28;19963;-58
2021/10/08 03:25:14;;;;;;;;;;;21.70;56.20;;;;;;5056353;28;19968;-59
2021/10/08 03:27:41;;;;;;;;;;;21.70;56.20;;;;;;5073122;28;19968;-59
2021/10/08 03:30:10;;;;;;;;;;;21.70;56.20;;;;;;5090317;28;19931;-57
2021/10/08 03:32:37;;;;;;;;;;;21.70;56.90;;;;;;5076052;28;19974;-59
2021/10/08 03:35:04;;;;;;;;;;;21.70;56.20;;;;;;5061186;28;20411;-59
2021/10/08 03:37:42;;;;;;;;;;;21.70;56.20;;;;;;5058102;28;19925;-59
2021/10/08 03:40:12;;;;;;;;;;;21.70;56.20;;;;;;5068118;28;19924;-59
2021/10/08 03:42:39;;;;;;;;;;;21.70;56.30;;;;;;5066926;28;20019;-58
2021/10/08 03:45:12;;;;;;;;;;;21.70;56.20;;;;;;5065669;28;19975;-59
2021/10/08 03:47:56;;;;;;;;;;;21.70;56.20;;;;;;5070081;28;19959;-58
2021/10/08 03:50:24;;;;;;;;;;;21.70;56.20;;;;;;5063765;28;20003;-59
2021/10/08 03:52:51;;;;;;;;;;;21.70;56.20;;;;;;5074375;28;20018;-57
2021/10/08 03:55:18;;;;;;;;;;;21.70;56.20;;;;;;5073108;28;20391;-58
2021/10/08 03:57:45;;;;;;;;;;;21.70;56.20;;;;;;5072975;28;20007;-58
2021/10/08 04:00:13;;;;;;;;;;;21.70;56.20;;;;;;5056202;28;19972;-58
2021/10/08 04:02:40;;;;;;;;;;;21.70;56.30;;;;;;5073696;28;19989;-59
2021/10/08 04:05:07;;;;;;;;;;;21.70;56.20;;;;;;5058978;28;19960;-58
2021/10/08 04:07:34;;;;;;;;;;;21.70;56.20;;;;;;5070518;28;19924;-59
2021/10/08 04:10:01;;;;;;;;;;;21.70;56.20;;;;;;5072574;28;19978;-58
2021/10/08 04:12:28;;;;;;;;;;;21.70;56.20;;;;;;5065344;28;19971;-59
2021/10/08 04:14:55;;;;;;;;;;;21.70;56.20;;;;;;5071390;28;19931;-58
2021/10/08 04:17:22;;;;;;;;;;;21.70;56.20;;;;;;5082285;28;19930;-58
2021/10/08 04:19:49;;;;;;;;;;;21.70;56.30;;;;;;5071602;28;19924;-59
2021/10/08 04:22:16;;;;;;;;;;;21.70;56.20;;;;;;5071778;28;19944;-59
2021/10/08 04:24:43;;;;;;;;;;;21.70;56.30;;;;;;5057158;28;19931;-58
2021/10/08 04:27:10;;;;;;;;;;;21.70;56.30;;;;;;5104832;28;19974;-57
2021/10/08 04:29:37;;;;;;;;;;;21.70;56.30;;;;;;5055129;28;19979;-60
2021/10/08 04:32:04;;;;;;;;;;;21.70;56.30;;;;;;5070799;28;19960;-59
2021/10/08 04:34:31;;;;;;;;;;;21.70;56.30;;;;;;5072578;28;19979;-59
2021/10/08 04:36:58;;;;;;;;;;;21.70;56.30;;;;;;5072517;28;20292;-58
2021/10/08 04:39:24;;;;;;;;;;;21.70;56.30;;;;;;5071340;28;19979;-57
2021/10/08 04:41:51;;;;;;;;;;;21.70;56.30;;;;;;5072823;28;19925;-59
2021/10/08 04:44:18;;;;;;;;;;;21.70;56.20;;;;;;5073428;28;19925;-58
2021/10/08 04:46:45;;;;;;;;;;;21.70;56.20;;;;;;5073700;28;19970;-59
2021/10/08 04:49:12;;;;;;;;;;;21.70;56.30;;;;;;5072287;28;20513;-59
2021/10/08 04:51:39;;;;;;;;;;;21.70;56.30;;;;;;5074063;28;23104;-58
2021/10/08 04:54:06;;;;;;;;;;;21.70;56.30;;;;;;5054864;28;19983;-59
2021/10/08 04:56:33;;;;;;;;;;;21.70;56.30;;;;;;5088865;28;20375;-59
2021/10/08 04:59:00;;;;;;;;;;;21.70;56.30;;;;;;5072113;28;20288;-59
2021/10/08 05:01:28;;;;;;;;;;;21.70;56.30;;;;;;5070910;28;19963;-60
2021/10/08 05:03:55;;;;;;;;;;;21.70;56.30;;;;;;5061818;28;20045;-59
2021/10/08 05:06:22;;;;;;;;;;;21.70;56.30;;;;;;5057837;28;20380;-59
2021/10/08 05:08:49;;;;;;;;;;;21.70;56.30;;;;;;5056748;28;20334;-58
2021/10/08 05:11:16;;;;;;;;;;;21.70;56.30;;;;;;5060377;28;19933;-59
2021/10/08 05:13:43;;;;;;;;;;;21.70;56.30;;;;;;5071905;28;19976;-59
2021/10/08 05:16:10;;;;;;;;;;;21.70;56.30;;;;;;5072630;28;19925;-59
2021/10/08 05:18:38;;;;;;;;;;;21.70;56.30;;;;;;5073339;28;19932;-59
2021/10/08 05:21:05;;;;;;;;;;;21.70;56.30;;;;;;5072071;28;19970;-59
2021/10/08 05:23:33;;;;;;;;;;;21.70;56.30;;;;;;5070707;28;19963;-59
2021/10/08 05:26:01;;;;;;;;;;;21.70;56.30;;;;;;5070291;28;19964;-58
2021/10/08 05:28:28;;;;;;;;;;;21.70;56.30;;;;;;5073041;28;20014;-59
2021/10/08 05:30:55;;;;;;;;;;;21.70;56.30;;;;;;5070376;28;19994;-58
2021/10/08 05:33:22;;;;;;;;;;;21.70;56.30;;;;;;5071739;28;19957;-58
2021/10/08 05:35:49;;;;;;;;;;;21.70;56.40;;;;;;5072911;28;19967;-59
2021/10/08 05:38:16;;;;;;;;;;;21.70;56.30;;;;;;5071737;28;19929;-59
2021/10/08 05:40:43;;;;;;;;;;;21.70;56.30;;;;;;5072849;28;19928;-59
2021/10/08 05:43:10;;;;;;;;;;;21.70;56.30;;;;;;5071712;28;19924;-59
2021/10/08 05:45:37;;;;;;;;;;;21.70;56.30;;;;;;5054099;28;20401;-59
2021/10/08 05:48:04;;;;;;;;;;;21.70;56.30;;;;;;5070653;28;19924;-59
2021/10/08 05:50:31;;;;;;;;;;;21.70;56.30;;;;;;5073823;28;19925;-59
2021/10/08 05:52:58;;;;;;;;;;;21.70;56.30;;;;;;5075244;28;20018;-59
2021/10/08 05:55:25;;;;;;;;;;;21.70;56.90;;;;;;5075174;28;19970;-58
2021/10/08 05:57:55;;;;;;;;;;;21.70;56.30;;;;;;5074965;28;19925;-59
2021/10/08 06:00:22;;;;;;;;;;;21.70;56.30;;;;;;5076338;28;19932;-60
2021/10/08 06:02:49;;;;;;;;;;;21.70;56.30;;;;;;5081302;28;19924;-58
2021/10/08 06:05:16;;;;;;;;;;;21.70;56.30;;;;;;5087014;28;19958;-59
2021/10/08 06:07:43;;;;;;;;;;;21.70;56.30;;;;;;5076494;28;19924;-58
2021/10/08 06:10:10;;;;;;;;;;;21.70;56.30;;;;;;5073990;28;19924;-59
2021/10/08 06:12:36;;;;;;;;;;;21.70;56.30;;;;;;5059233;28;20355;-59
2021/10/08 06:15:04;;;;;;;;;;;21.70;56.30;;;;;;5090899;28;19924;-58
2021/10/08 06:17:31;;;;;;;;;;;21.70;56.30;;;;;;5085368;28;19964;-58
2021/10/08 06:19:57;;;;;;;;;;;21.70;56.30;;;;;;5076130;28;19967;-58
2021/10/08 06:22:24;;;;;;;;;;;21.70;56.30;;;;;;5076029;28;19971;-59
2021/10/08 06:24:51;;;;;;;;;;;21.70;56.30;;;;;;5065174;28;19925;-57
2021/10/08 06:27:18;;;;;;;;;;;21.70;56.30;;;;;;5106992;27;19924;-58
2021/10/08 06:29:45;;;;;;;;;;;21.70;56.30;;;;;;5085070;28;20326;-58
2021/10/08 06:32:12;;;;;;;;;;;21.80;56.30;;;;;;5071244;28;19968;-59
2021/10/08 06:34:39;;;;;;;;;;;21.80;56.40;;;;;;5061048;28;19924;-59
2021/10/08 06:37:06;;;;;;;;;;;21.80;56.30;;;;;;5106910;28;19924;-58
2021/10/08 06:39:33;;;;;;;;;;;21.80;56.30;;;;;;5094215;28;20018;-56
2021/10/08 06:42:01;;;;;;;;;;;21.80;56.30;;;;;;5074772;28;20426;-59
2021/10/08 06:44:28;;;;;;;;;;;21.80;56.40;;;;;;5058275;28;19952;-59
2021/10/08 06:46:55;;;;;;;;;;;21.80;56.40;;;;;;5074378;28;19963;-59
2021/10/08 06:49:22;;;;;;;;;;;21.80;57.00;;;;;;5075735;28;20368;-59
2021/10/08 06:51:49;;;;;;;;;;;21.80;56.40;;;;;;5074171;28;20372;-59
2021/10/08 06:54:16;;;;;;;;;;;21.80;56.40;;;;;;5081392;28;19928;-58
2021/10/08 06:56:43;;;;;;;;;;;21.80;56.40;;;;;;5085499;28;19986;-58
2021/10/08 06:59:10;;;;;;;;;;;21.80;56.40;;;;;;5075439;28;19928;-60
2021/10/08 07:01:37;;;;;;;;;;;21.80;56.30;;;;;;5075560;28;19935;-58
2021/10/08 07:04:04;;;;;;;;;;;21.80;56.40;;;;;;5091797;28;20368;-59
2021/10/08 07:06:31;;;;;;;;;;;21.80;56.90;;;;;;5073573;28;20015;-59
2021/10/08 07:08:58;;;;;;;;;;;21.80;56.30;;;;;;5092192;28;19966;-59
2021/10/08 07:11:25;;;;;;;;;;;21.80;56.40;;;;;;5076557;28;20023;-59
2021/10/08 07:13:54;;;;;;;;;;;21.80;56.40;;;;;;5075226;28;19932;-58
2021/10/08 07:16:21;;;;;;;;;;;21.80;56.40;;;;;;5075136;28;20014;-60
2021/10/08 07:18:54;;;;;;;;;;;21.80;56.40;;;;;;5073535;28;20012;-59
2021/10/08 07:21:22;;;;;;;;;;;21.80;56.30;;;;;;5066069;28;20088;-59
2021/10/08 07:23:49;;;;;;;;;;;21.90;56.40;;;;;;5063344;28;19931;-57
2021/10/08 07:26:17;;;;;;;;;;;21.90;56.30;;;;;;5073717;28;19958;-58
2021/10/08 07:28:44;;;;;;;;;;;21.90;56.30;;;;;;5074254;28;20412;-56
2021/10/08 07:31:11;;;;;;;;;;;21.90;56.30;;;;;;5073113;28;19932;-59
2021/10/08 07:33:41;;;;;;;;;;;21.90;56.30;;;;;;5075802;28;20872;-58
2021/10/08 07:36:08;;;;;;;;;;;21.90;56.30;;;;;;5075082;28;19968;-58
2021/10/08 07:38:35;;;;;;;;;;;21.90;56.30;;;;;;5073393;28;19990;-59
2021/10/08 07:41:02;;;;;;;;;;;21.90;56.30;;;;;;5058795;28;19925;-59
2021/10/08 07:43:29;;;;;;;;;;;21.90;56.30;;;;;;5058196;28;19968;-60
2021/10/08 07:45:56;;;;;;;;;;;21.90;56.20;;;;;;5068301;28;19963;-60
2021/10/08 07:48:23;;;;;;;;;;;22.00;56.30;;;;;;5065339;28;19960;-59
2021/10/08 07:50:50;;;;;;;;;;;22.00;56.30;;;;;;5064062;28;19924;-59
2021/10/08 07:53:17;;;;;;;;;;;22.00;56.30;;;;;;5074669;28;19983;-59
2021/10/08 07:55:44;;;;;;;;;;;22.00;56.30;;;;;;5076251;28;19924;-59
2021/10/08 07:58:11;;;;;;;;;;;22.00;56.20;;;;;;5084503;28;19960;-59
2021/10/08 08:00:38;;;;;;;;;;;22.00;56.20;;;;;;5055766;28;20393;-59
2021/10/08 08:03:05;;;;;;;;;;;22.00;56.20;;;;;;5072029;28;19932;-59
2021/10/08 08:05:31;;;;;;;;;;;22.00;56.20;;;;;;5088887;28;20372;-60
2021/10/08 08:07:58;;;;;;;;;;;22.00;56.20;;;;;;5074335;28;20419;-59
2021/10/08 08:10:25;;;;;;;;;;;22.10;56.20;;;;;;5083075;28;19974;-59
2021/10/08 08:12:52;;;;;;;;;;;22.10;56.20;;;;;;5074822;28;19967;-58
2021/10/08 08:15:19;;;;;;;;;;;22.10;56.30;;;;;;5071678;28;19931;-57
2021/10/08 08:17:46;;;;;;;;;;;22.10;56.20;;;;;;5072310;28;20023;-59
2021/10/08 08:20:13;;;;;;;;;;;22.10;56.20;;;;;;5072381;28;19979;-59
2021/10/08 08:22:40;;;;;;;;;;;22.10;56.20;;;;;;5072590;28;19924;-59
2021/10/08 08:25:07;;;;;;;;;;;22.10;56.10;;;;;;5073306;28;19925;-58
2021/10/08 08:27:34;;;;;;;;;;;22.10;56.20;;;;;;5072970;28;20328;-58
2021/10/08 08:30:03;;;;;;;;;;;22.10;56.10;;;;;;5071495;28;19932;-59
2021/10/08 08:32:31;;;;;;;;;;;22.20;56.30;;;;;;5071841;28;20020;-59
2021/10/08 08:34:59;;;;;;;;;;;22.30;56.40;;;;;;5060149;28;20442;-59
2021/10/08 08:37:26;;;;;;;;;;;22.30;56.40;;;;;;5057328;28;19931;-58
2021/10/08 08:39:53;;;;;;;;;;;22.30;56.50;;;;;;5068844;28;20007;-58
2021/10/08 08:42:20;;;;;;;;;;;22.30;56.50;;;;;;5072224;28;19967;-58
2021/10/08 08:44:48;;;;;;;;;;;22.30;56.50;;;;;;5079321;28;19966;-59
2021/10/08 08:47:16;;;;;;;;;;;22.40;56.50;;;;;;5088841;28;19982;-58
2021/10/08 08:49:43;;;;;;;;;;;22.40;56.50;;;;;;5083705;28;19924;-59
2021/10/08 08:52:11;;;;;;;;;;;22.40;56.40;;;;;;5056585;28;19924;-59
2021/10/08 08:54:40;;;;;;;;;;;22.40;56.50;;;;;;5054851;28;20292;-58
2021/10/08 08:57:14;;;;;;;;;;;22.40;56.50;;;;;;5089632;28;20007;-58
2021/10/08 09:00:00;;;;;;;;;;;22.40;56.50;;;;;;5063469;28;19925;-59
2021/10/08 09:02:27;;;;;;;;;;;22.40;56.40;;;;;;5053783;28;19928;-60
2021/10/08 09:04:55;;;;;;;;;;;22.40;56.50;;;;;;5056312;28;19924;-58
2021/10/08 09:07:23;;;;;;;;;;;22.40;56.50;;;;;;5099811;28;19924;-58
2021/10/08 09:09:50;;;;;;;;;;;22.40;56.50;;;;;;5065165;28;19925;-59
2021/10/08 09:12:17;;;;;;;;;;;22.40;56.50;;;;;;5066250;28;19928;-57
2021/10/08 09:14:44;;;;;;;;;;;22.40;56.50;;;;;;5072097;28;19925;-59
2021/10/08 09:17:15;;;;;;;;;;;22.40;56.50;;;;;;5072130;28;19924;-59
2021/10/08 09:19:46;;;;;;;;;;;22.40;56.50;;;;;;5070695;28;19928;-59
2021/10/08 09:22:17;;;;;;;;;;;22.40;56.40;;;;;;5070416;28;20659;-58
2021/10/08 09:24:44;;;;;;;;;;;22.40;56.40;;;;;;5074345;28;20023;-59
2021/10/08 09:27:12;;;;;;;;;;;22.40;56.40;;;;;;5078493;28;19924;-59
2021/10/08 09:29:47;;;;;;;;;;;22.50;56.50;;;;;;5079971;28;20023;-59
2021/10/08 09:32:14;;;;;;;;;;;22.50;56.40;;;;;;5077295;28;20019;-59
2021/10/08 09:34:41;;;;;;;;;;;22.50;56.30;;;;;;5077382;28;19925;-59
2021/10/08 09:37:10;;;;;;;;;;;22.50;56.30;;;;;;5077266;28;19972;-60
2021/10/08 09:39:38;;;;;;;;;;;22.50;56.30;;;;;;5077044;28;19928;-59
2021/10/08 09:42:11;;;;;;;;;;;22.50;56.30;;;;;;5076892;28;20003;-59
2021/10/08 09:44:46;;;;;;;;;;;22.50;56.30;;;;;;5078270;28;19977;-59
2021/10/08 09:47:20;;;;;;;;;;;22.50;56.30;;;;;;5069774;28;19975;-59
2021/10/08 09:49:49;;;;;;;;;;;22.50;56.30;;;;;;5068947;28;19974;-59
2021/10/08 09:52:29;;;;;;;;;;;22.60;56.30;;;;;;5078408;28;19929;-59
2021/10/08 09:55:01;;;;;;;;;;;22.60;56.30;;;;;;5079159;28;19974;-58
2021/10/08 09:57:28;;;;;;;;;;;22.60;56.20;;;;;;5078915;28;19970;-58
2021/10/08 09:59:55;;;;;;;;;;;22.60;56.20;;;;;;5078113;28;19928;-59
2021/10/08 10:02:22;;;;;;;;;;;22.70;56.20;;;;;;5078183;28;19978;-59
2021/10/08 10:04:54;;;;;;;;;;;22.60;56.10;;;;;;5078648;28;19928;-59
2021/10/08 10:07:26;;;;;;;;;;;22.70;56.20;;;;;;5079374;28;20306;-58
2021/10/08 10:09:53;;;;;;;;;;;22.70;56.20;;;;;;5077412;28;19960;-59
2021/10/08 10:12:34;;;;;;;;;;;22.70;56.20;;;;;;5078463;28;19928;-55
2021/10/08 10:15:02;;;;;;;;;;;22.70;56.10;;;;;;5076847;28;20352;-60
2021/10/08 10:17:29;;;;;;;;;;;22.70;56.20;;;;;;5084359;28;19924;-59
2021/10/08 10:19:56;;;;;;;;;;;22.70;56.30;;;;;;5068040;28;19931;-59
2021/10/08 10:22:23;;;;;;;;;;;22.70;56.30;;;;;;5071939;28;20007;-59
2021/10/08 10:24:51;;;;;;;;;;;22.70;56.40;;;;;;5084749;28;20006;-59
2021/10/08 10:27:18;;;;;;;;;;;22.70;56.50;;;;;;5084358;28;19982;-58
2021/10/08 10:29:46;;;;;;;;;;;22.70;56.50;;;;;;5064107;28;19931;-55
2021/10/08 10:32:13;;;;;;;;;;;22.60;56.50;;;;;;5066042;28;19994;-58
2021/10/08 10:34:40;;;;;;;;;;;22.70;56.50;;;;;;5079448;28;19990;-59
2021/10/08 10:37:08;;;;;;;;;;;22.70;56.50;;;;;;5075646;28;20018;-58
2021/10/08 10:39:36;;;;;;;;;;;22.70;56.50;;;;;;5074901;28;20406;-59
2021/10/08 10:42:03;;;;;;;;;;;22.70;56.40;;;;;;5076067;28;19974;-59
2021/10/08 10:44:33;;;;;;;;;;;22.70;56.40;;;;;;5074896;28;19930;-57
2021/10/08 10:47:16;;;;;;;;;;;22.70;56.40;;;;;;5074505;28;19951;-58
2021/10/08 10:49:50;;;;;;;;;;;22.70;56.40;;;;;;5062936;28;19948;-58
2021/10/08 10:52:21;;;;;;;;;;;22.70;56.40;;;;;;5068730;28;20436;-56
2021/10/08 10:54:51;;;;;;;;;;;22.70;56.40;;;;;;5066307;28;19924;-57
2021/10/08 10:57:18;;;;;;;;;;;22.70;56.40;;;;;;5074010;28;19928;-57
2021/10/08 10:59:46;;;;;;;;;;;22.70;56.50;;;;;;5089762;28;19974;-59
2021/10/08 11:02:15;;;;;;;;;;;22.70;56.40;;;;;;5086789;28;19932;-58
2021/10/08 11:04:48;;;;;;;;;;;22.70;56.50;;;;;;5072291;28;19932;-58
2021/10/08 11:07:19;;;;;;;;;;;22.70;56.50;;;;;;5058150;28;19924;-58
2021/10/08 11:10:04;;;;;;;;;;;22.70;56.50;;;;;;5076213;28;19932;-58
2021/10/08 11:12:34;;;;;;;;;;;22.70;56.50;;;;;;5057346;28;19960;-57
2021/10/08 11:15:16;;;;;;;;;;;22.70;56.50;;;;;;5078530;28;19928;-58
2021/10/08 11:17:46;;;;;;;;;;;22.70;56.50;;;;;;5062768;28;19924;-58
2021/10/08 11:20:26;;;;;;;;;;;22.70;56.50;;;;;;5074451;28;19929;-58
2021/10/08 11:22:53;;;;;;;;;;;22.70;56.50;;;;;;5073524;28;19971;-57
2021/10/08 11:25:20;;;;;;;;;;;22.70;56.50;;;;;;5075107;28;19924;-58
2021/10/08 11:27:48;;;;;;;;;;;22.70;56.50;;;;;;5073696;28;20031;-58
2021/10/08 11:30:16;;;;;;;;;;;22.70;56.60;;;;;;5072360;28;19950;-58
2021/10/08 11:32:46;;;;;;;;;;;22.70;56.70;;;;;;5073696;28;19974;-57
2021/10/08 11:35:18;;;;;;;;;;;22.70;56.70;;;;;;5074749;28;20024;-57
2021/10/08 11:37:47;;;;;;;;;;;22.70;56.80;;;;;;5073668;28;19967;-58
2021/10/08 11:40:15;;;;;;;;;;;22.70;56.70;;;;;;5072603;28;19952;-57
2021/10/08 11:42:50;;;;;;;;;;;22.70;56.80;;;;;;5075268;28;19970;-54
2021/10/08 11:45:31;;;;;;;;;;;22.70;56.80;;;;;;5072398;28;19994;-59
2021/10/08 11:48:07;;;;;;;;;;;22.70;56.80;;;;;;5074676;28;20387;-56
2021/10/08 11:53:06;;;;;;;;;;;22.70;56.90;;;;;;5074788;28;19975;-59
2021/10/08 11:55:53;;;;;;;;;;;22.70;56.90;;;;;;5058383;28;19924;-55
2021/10/08 11:58:21;;;;;;;;;;;22.70;57.00;;;;;;5074833;28;19931;-58
2021/10/08 12:00:48;;;;;;;;;;;22.70;57.00;;;;;;5074176;28;19924;-56
2021/10/08 12:03:21;;;;;;;;;;;22.70;57.10;;;;;;5072465;28;19924;-57
2021/10/08 12:05:51;;;;;;;;;;;22.70;57.10;;;;;;5072612;28;20015;-57
2021/10/08 12:08:20;;;;;;;;;;;22.70;57.10;;;;;;5058838;28;19975;-57
2021/10/08 12:10:58;;;;;;;;;;;22.70;57.20;;;;;;5069956;28;20015;-58
2021/10/08 12:13:42;;;;;;;;;;;22.60;57.10;;;;;;5074370;28;20410;-57
2021/10/08 12:16:10;;;;;;;;;;;22.60;57.10;;;;;;5072949;28;19935;-56
2021/10/08 12:18:44;;;;;;;;;;;22.60;57.10;;;;;;5072599;28;19989;-57
2021/10/08 12:21:13;;;;;;;;;;;22.60;57.20;;;;;;5074952;28;20015;-57
2021/10/08 12:23:40;;;;;;;;;;;22.60;57.20;;;;;;5072047;28;19928;-56
2021/10/08 12:26:07;;;;;;;;;;;22.60;57.20;;;;;;5073749;28;19924;-58
2021/10/08 12:28:34;;;;;;;;;;;22.60;57.40;;;;;;5073093;28;19935;-56
2021/10/08 12:31:03;;;;;;;;;;;22.60;57.40;;;;;;5074015;28;20004;-57
2021/10/08 12:33:34;;;;;;;;;;;22.60;57.40;;;;;;5073027;28;19924;-57
2021/10/08 12:36:10;;;;;;;;;;;22.50;57.40;;;;;;5055084;28;20028;-57
2021/10/08 12:38:51;;;;;;;;;;;22.60;57.50;;;;;;5073062;28;19931;-59
2021/10/08 12:41:19;;;;;;;;;;;22.50;57.40;;;;;;5104220;28;20330;-58
2021/10/08 12:43:46;;;;;;;;;;;22.50;57.40;;;;;;5057258;28;19964;-59
2021/10/08 12:46:20;;;;;;;;;;;22.50;57.50;;;;;;5088816;28;19928;-56
2021/10/08 12:48:59;;;;;;;;;;;22.50;57.50;;;;;;5059718;28;19931;-56
2021/10/08 12:51:26;;;;;;;;;;;22.50;58.10;;;;;;5070688;28;19968;-58
2021/10/08 12:54:12;;;;;;;;;;;22.50;57.50;;;;;;5071877;28;19986;-58
2021/10/08 12:56:39;;;;;;;;;;;22.50;57.50;;;;;;5071726;28;19982;-57
2021/10/08 12:59:07;;;;;;;;;;;22.50;57.50;;;;;;5072839;28;19974;-58
2021/10/08 13:01:34;;;;;;;;;;;22.50;57.60;;;;;;5080040;28;19924;-58
2021/10/08 13:04:16;;;;;;;;;;;22.50;57.60;;;;;;5082925;28;19931;-55
2021/10/08 13:06:43;;;;;;;;;;;22.50;57.60;;;;;;5072208;28;19969;-57
2021/10/08 13:09:13;;;;;;;;;;;22.50;57.60;;;;;;5069682;28;19925;-58
2021/10/08 13:11:45;;;;;;;;;;;22.50;57.50;;;;;;5059069;28;19931;-58
2021/10/08 13:14:21;;;;;;;;;;;22.50;57.50;;;;;;5071118;28;19978;-56
2021/10/08 13:16:48;;;;;;;;;;;22.50;57.40;;;;;;5056533;28;19925;-58
2021/10/08 13:19:37;;;;;;;;;;;22.50;57.40;;;;;;5073737;28;20011;-58
2021/10/08 13:22:06;;;;;;;;;;;22.50;57.40;;;;;;5059619;28;20006;-57
2021/10/08 13:24:33;;;;;;;;;;;22.50;57.40;;;;;;5091222;28;19971;-56
2021/10/08 13:27:00;;;;;;;;;;;22.60;57.40;;;;;;5090034;28;19979;-58
2021/10/08 13:29:28;;;;;;;;;;;22.50;57.20;;;;;;5070890;28;19924;-56
2021/10/08 13:31:55;;;;;;;;;;;22.60;57.30;;;;;;5058198;28;19988;-58
2021/10/08 13:34:23;;;;;;;;;;;22.60;57.20;;;;;;5079195;28;20023;-58
2021/10/08 13:37:07;;;;;;;;;;;22.60;57.20;;;;;;5088633;28;19924;-56
2021/10/08 13:39:36;;;;;;;;;;;22.70;57.30;;;;;;5078557;28;20414;-58
2021/10/08 13:42:03;;;;;;;;;;;22.60;57.20;;;;;;5070642;28;19924;-58
2021/10/08 13:44:31;;;;;;;;;;;22.60;57.20;;;;;;5072986;28;19925;-58
2021/10/08 13:46:58;;;;;;;;;;;22.70;57.20;;;;;;5076896;28;19959;-57
2021/10/08 13:49:25;;;;;;;;;;;22.60;57.20;;;;;;5083014;28;19924;-59
2021/10/08 13:51:52;;;;;;;;;;;22.60;57.20;;;;;;5056049;28;19925;-58
2021/10/08 13:54:19;;;;;;;;;;;22.70;57.20;;;;;;5054320;28;19964;-59
2021/10/08 13:56:46;;;;;;;;;;;22.60;57.20;;;;;;5053709;28;19932;-58
2021/10/08 13:59:13;;;;;;;;;;;22.70;57.30;;;;;;5071707;28;19924;-58
2021/10/08 14:05:16;;;;;;;;;;;22.60;57.20;;;;;;5027122;28;20004;-55
2021/10/08 14:12:45;;;;;;;;;;;22.60;57.30;;;;;;5031465;28;20434;-57
2021/10/08 14:15:12;;;;;;;;;;;22.60;57.30;;;;;;5032907;28;19932;-55
2021/10/08 14:17:39;;;;;;;;;;;22.60;57.30;;;;;;5037794;28;19925;-54
2021/10/08 14:20:07;;;;;;;;;;;22.50;57.30;;;;;;5031451;28;19925;-57
2021/10/08 14:22:34;;;;;;;;;;;22.50;57.30;;;;;;5033623;28;19925;-58
2021/10/08 14:25:02;;;;;;;;;;;22.50;57.40;;;;;;5026701;28;19930;-56
2021/10/08 14:27:29;;;;;;;;;;;22.50;57.40;;;;;;5020082;28;20479;-55
2021/10/08 14:29:56;;;;;;;;;;;22.50;57.40;;;;;;5032692;28;19975;-58
2021/10/08 14:32:23;;;;;;;;;;;22.50;57.40;;;;;;5031331;28;19929;-57
2021/10/08 14:34:50;;;;;;;;;;;22.50;57.40;;;;;;5034038;28;20032;-59